Portada
METAR-TAF:

METAR-TAF

Aeropuertos :

Gibraltar, Gibraltar

Aeropuerto de Gibraltar

latitud: 36-09N, longitud: 005-21W, altitud: 5 m

Observación

El informe se hizo hace 30 minutos, a las 17:50 UTC
Viento 5 kt del noreste
Temperatura 21°C
Humedad 83%
Presión 1018 hPa
Visibilidad 10 km o más

METAR: LXGB 231750Z AUTO 05005KT 9999 // NCD 21/18 Q1018

Hora: 20:20 (18:20 UTC)

Pronóstico

El informe se hizo hace 5 horas y 6 minutos, a las 13:14 UTC
Pronóstico válido del 23 a las 15 UTC al 23 a las 22 UTC
Viento 8 kt del este
Visibilidad 10 km o más
Escasas nubes a una altura de 1800 ft
Nubes dispersas a una altura de 3500 ft
Probabilidad 30% :
Temporalmente
del 23 a las 19 UTC al 23 a las 22 UTC
Nubes dispersas a una altura de 800 ft

TAF: LXGB 231314Z 2315/2322 08008KT 9999 FEW018 SCT035 PROB30 TEMPO 2319/2322 SCT008

Observaciones y pronósticos meteorológicos de más de 4000 aeropuertos (mensajes METAR y TAF).

Los puntos amarillos y rojos representan las estaciones disponibles.

Ponga el ratón en el punto deseado para ver el nombre de la estación.

Haga clic para ver las observaciones y los pronósticos meteorológicos.

Para cambiar el mapa : haga clic en los botones verdes con una cruz de color negro para hacer un zoom, en el botón verde con un guión para alejar o en las flechas verdes para mapas adyacentes.


METAR-TAF: